Time;durP1;ratioP1;P1;durP2;ratioP2;P2;SDS_P1;SDS_P2;PMS_P1;PMS_P2;Temp;Humidity;BMP_temperature;BMP_pressure;BME280_temperature;BME280_humidity;BME280_pressure;Samples;Min_cycle;Max_cycle;Signal;HPM_P1;HPM_P2
2021/05/27 00:01:12;;;;;;;45.30;33.35;;;;;;;;;;5050461;28;20534;-55
2021/05/27 00:03:38;;;;;;;43.83;30.90;;;;;;;;;;5050150;28;20025;-56
2021/05/27 00:06:04;;;;;;;45.42;32.08;;;;;;;;;;5032086;28;20033;-55
2021/05/27 00:08:30;;;;;;;43.88;30.20;;;;;;;;;;5030078;28;20362;-56
2021/05/27 00:10:56;;;;;;;42.58;31.23;;;;;;;;;;5030043;28;20087;-54
2021/05/27 00:13:22;;;;;;;41.50;31.27;;;;;;;;;;5029826;28;20388;-59
2021/05/27 00:15:48;;;;;;;45.80;31.73;;;;;;;;;;5028683;28;20025;-56
2021/05/27 00:18:14;;;;;;;49.08;33.05;;;;;;;;;;5028607;28;20028;-57
2021/05/27 00:20:40;;;;;;;55.30;27.27;;;;;;;;;;5029846;28;20475;-56
2021/05/27 00:23:06;;;;;;;36.75;26.15;;;;;;;;;;5030063;28;20026;-56
2021/05/27 00:25:32;;;;;;;31.00;22.90;;;;;;;;;;5030142;28;20105;-56
2021/05/27 00:27:58;;;;;;;28.75;19.80;;;;;;;;;;5031204;28;20021;-61
2021/05/27 00:30:26;;;;;;;23.52;19.10;;;;;;;;;;5030237;28;20021;-60
2021/05/27 00:32:52;;;;;;;24.23;16.77;;;;;;;;;;5032161;28;20017;-62
2021/05/27 00:35:18;;;;;;;19.40;14.77;;;;;;;;;;5031599;28;20103;-58
2021/05/27 00:37:44;;;;;;;21.52;16.30;;;;;;;;;;5032200;28;20120;-59
2021/05/27 00:40:12;;;;;;;19.52;15.00;;;;;;;;;;5031964;28;20032;-56
2021/05/27 00:42:39;;;;;;;18.75;13.98;;;;;;;;;;5030790;28;20026;-59
2021/05/27 00:45:07;;;;;;;19.83;14.57;;;;;;;;;;5029107;28;20033;-58
2021/05/27 00:49:59;;;;;;;18.50;14.48;;;;;;;;;;5101261;23;20048;-61
2021/05/27 00:52:25;;;;;;;20.00;14.88;;;;;;;;;;5069804;28;20080;-61
2021/05/27 00:54:53;;;;;;;19.23;15.32;;;;;;;;;;5070913;28;20479;-62
2021/05/27 00:57:36;;;;;;;18.50;14.88;;;;;;;;;;5089272;28;20024;-63
2021/05/27 01:00:05;;;;;;;19.48;13.85;;;;;;;;;;5050970;28;20028;-63
2021/05/27 01:02:31;;;;;;;20.15;14.70;;;;;;;;;;5050443;28;20020;-62
2021/05/27 01:04:57;;;;;;;18.58;14.23;;;;;;;;;;5050605;28;20079;-62
2021/05/27 01:07:23;;;;;;;18.77;14.07;;;;;;;;;;5050711;28;20123;-61
2021/05/27 01:09:50;;;;;;;19.27;14.35;;;;;;;;;;5050538;28;20070;-62
2021/05/27 01:12:16;;;;;;;17.20;13.52;;;;;;;;;;5050627;28;20078;-62
2021/05/27 01:17:26;;;;;;;19.73;14.07;;;;;;;;;;5068727;28;20163;-62
2021/05/27 01:19:53;;;;;;;18.50;13.15;;;;;;;;;;5051711;28;20029;-61
2021/05/27 01:22:23;;;;;;;17.75;13.52;;;;;;;;;;5052456;28;20048;-62
2021/05/27 01:24:49;;;;;;;18.50;13.88;;;;;;;;;;5052256;28;20492;-62
2021/05/27 01:27:16;;;;;;;18.35;13.32;;;;;;;;;;5070407;28;20074;-63
2021/05/27 01:29:42;;;;;;;17.88;13.52;;;;;;;;;;5052029;28;20515;-62
2021/05/27 01:32:09;;;;;;;19.45;13.15;;;;;;;;;;5051961;28;20044;-61
2021/05/27 01:34:35;;;;;;;17.30;13.27;;;;;;;;;;5052390;28;20468;-62
2021/05/27 01:37:02;;;;;;;19.08;13.68;;;;;;;;;;5052007;28;20017;-62
2021/05/27 01:39:28;;;;;;;18.63;14.18;;;;;;;;;;5050989;28;20021;-61
2021/05/27 01:41:54;;;;;;;18.38;14.10;;;;;;;;;;5050207;28;20031;-62
2021/05/27 01:44:20;;;;;;;20.50;14.40;;;;;;;;;;5050332;28;20020;-62
2021/05/27 01:46:46;;;;;;;19.80;14.20;;;;;;;;;;5050267;28;20480;-62
2021/05/27 01:49:12;;;;;;;18.30;13.43;;;;;;;;;;5050055;28;20451;-62
2021/05/27 01:51:38;;;;;;;21.00;15.70;;;;;;;;;;5049894;28;20028;-62
2021/05/27 01:54:04;;;;;;;19.02;14.77;;;;;;;;;;5050845;28;20020;-62
2021/05/27 01:56:30;;;;;;;18.95;14.00;;;;;;;;;;5050106;28;20024;-62
2021/05/27 01:59:03;;;;;;;17.52;13.90;;;;;;;;;;5049921;28;20051;-62
2021/05/27 02:01:29;;;;;;;17.92;13.52;;;;;;;;;;5050398;28;20112;-62
2021/05/27 02:03:55;;;;;;;18.27;14.35;;;;;;;;;;5052037;28;20036;-62
2021/05/27 02:06:21;;;;;;;18.83;14.18;;;;;;;;;;5052112;28;20027;-62
2021/05/27 02:11:32;;;;;;;20.05;14.65;;;;;;;;;;5070238;28;20078;-62
2021/05/27 02:13:58;;;;;;;19.60;14.10;;;;;;;;;;5051682;28;20025;-62
2021/05/27 02:16:24;;;;;;;18.38;13.70;;;;;;;;;;5051992;28;20050;-62
2021/05/27 02:18:50;;;;;;;20.10;14.35;;;;;;;;;;5051153;28;20158;-63
2021/05/27 02:21:16;;;;;;;19.15;14.93;;;;;;;;;;5051960;28;20033;-62
2021/05/27 02:23:42;;;;;;;18.30;14.23;;;;;;;;;;5051420;28;20542;-62
2021/05/27 02:26:08;;;;;;;18.17;14.20;;;;;;;;;;5052127;28;20043;-62
2021/05/27 02:28:34;;;;;;;19.05;14.40;;;;;;;;;;5051308;28;20048;-61
2021/05/27 02:31:00;;;;;;;18.73;15.23;;;;;;;;;;5055315;28;20123;-62
2021/05/27 02:33:26;;;;;;;19.73;15.05;;;;;;;;;;5055381;28;20032;-62
2021/05/27 02:35:52;;;;;;;18.85;15.20;;;;;;;;;;5055647;28;20063;-62
2021/05/27 02:38:18;;;;;;;21.58;16.13;;;;;;;;;;5073395;28;20027;-62
2021/05/27 02:40:44;;;;;;;20.20;15.55;;;;;;;;;;5055561;28;20021;-62
2021/05/27 02:43:10;;;;;;;19.27;14.73;;;;;;;;;;5055443;28;20168;-62
2021/05/27 02:45:36;;;;;;;21.48;15.40;;;;;;;;;;5055351;28;20077;-62
2021/05/27 02:48:02;;;;;;;19.60;14.48;;;;;;;;;;5055276;28;20111;-62
2021/05/27 02:50:28;;;;;;;19.30;14.07;;;;;;;;;;5055360;28;20029;-63
2021/05/27 02:52:54;;;;;;;19.58;15.43;;;;;;;;;;5055290;28;20538;-62
2021/05/27 02:55:20;;;;;;;19.70;14.90;;;;;;;;;;5054817;28;20476;-62
2021/05/27 02:57:46;;;;;;;19.58;14.75;;;;;;;;;;5055403;28;20480;-62
2021/05/27 03:00:13;;;;;;;19.55;14.40;;;;;;;;;;5054504;28;20031;-58
2021/05/27 03:02:39;;;;;;;19.75;15.30;;;;;;;;;;5054825;28;20484;-62
2021/05/27 03:05:05;;;;;;;19.50;15.95;;;;;;;;;;5055372;28;20024;-62
2021/05/27 03:07:31;;;;;;;18.55;14.88;;;;;;;;;;5054786;28;20027;-62
2021/05/27 03:09:57;;;;;;;21.50;14.98;;;;;;;;;;5054538;28;20131;-62
2021/05/27 03:12:23;;;;;;;20.63;15.07;;;;;;;;;;5055106;28;20025;-62
2021/05/27 03:14:49;;;;;;;20.67;15.57;;;;;;;;;;5054473;28;20025;-62
2021/05/27 03:17:15;;;;;;;21.58;16.58;;;;;;;;;;5054192;28;20020;-61
2021/05/27 03:19:41;;;;;;;22.70;17.05;;;;;;;;;;5053710;28;20047;-62
2021/05/27 03:22:09;;;;;;;22.67;16.60;;;;;;;;;;5054198;28;20127;-62
2021/05/27 03:24:35;;;;;;;21.38;15.80;;;;;;;;;;5054528;28;20035;-62
2021/05/27 03:27:01;;;;;;;23.30;16.05;;;;;;;;;;5054538;28;20396;-63
2021/05/27 03:29:27;;;;;;;23.13;16.17;;;;;;;;;;5054102;28;20032;-62
2021/05/27 03:31:53;;;;;;;23.08;16.70;;;;;;;;;;5054685;28;20025;-62
2021/05/27 03:34:19;;;;;;;23.67;16.77;;;;;;;;;;5054573;28;20536;-60
2021/05/27 03:36:45;;;;;;;21.25;15.32;;;;;;;;;;5054529;28;20021;-60
2021/05/27 03:39:11;;;;;;;24.23;16.60;;;;;;;;;;5054277;28;20025;-62
2021/05/27 03:41:37;;;;;;;23.92;18.00;;;;;;;;;;5053154;28;20495;-62
2021/05/27 03:44:03;;;;;;;22.65;16.90;;;;;;;;;;5054125;28;20021;-61
2021/05/27 03:46:31;;;;;;;24.90;16.58;;;;;;;;;;5054046;28;20021;-62
2021/05/27 03:48:57;;;;;;;25.55;16.27;;;;;;;;;;5054086;28;20032;-62
2021/05/27 03:51:23;;;;;;;21.42;15.30;;;;;;;;;;5054015;28;20029;-63
2021/05/27 03:53:49;;;;;;;22.77;16.20;;;;;;;;;;5053730;28;20074;-62
2021/05/27 03:56:15;;;;;;;20.67;13.25;;;;;;;;;;5053930;28;20024;-62
2021/05/27 04:01:26;;;;;;;21.60;14.50;;;;;;;;;;5072100;28;20404;-63
2021/05/27 04:09:21;;;;;;;23.33;14.50;;;;;;;;;;5071845;28;20438;-57
2021/05/27 04:11:47;;;;;;;22.30;15.10;;;;;;;;;;5053589;28;20154;-62
2021/05/27 04:14:13;;;;;;;23.83;15.23;;;;;;;;;;5053409;28;20481;-59
2021/05/27 04:16:39;;;;;;;23.42;14.32;;;;;;;;;;5053564;28;20024;-62
2021/05/27 04:19:05;;;;;;;28.83;15.48;;;;;;;;;;5052676;28;20027;-61
2021/05/27 04:21:31;;;;;;;26.50;15.85;;;;;;;;;;5053034;28;20404;-62
2021/05/27 04:23:57;;;;;;;23.73;14.50;;;;;;;;;;5053357;28;20052;-62
2021/05/27 04:26:23;;;;;;;24.45;14.52;;;;;;;;;;5053375;28;20028;-62
2021/05/27 04:28:52;;;;;;;23.48;15.05;;;;;;;;;;5052751;28;20552;-61
2021/05/27 04:31:19;;;;;;;27.02;13.85;;;;;;;;;;5052678;28;20028;-62
2021/05/27 04:33:46;;;;;;;24.83;15.07;;;;;;;;;;5052654;28;20029;-61
2021/05/27 04:36:13;;;;;;;24.83;15.63;;;;;;;;;;5053392;28;20038;-61
2021/05/27 04:38:40;;;;;;;21.70;14.20;;;;;;;;;;5053223;28;20020;-62
2021/05/27 04:41:06;;;;;;;22.67;14.35;;;;;;;;;;5052889;28;20665;-60
2021/05/27 04:43:34;;;;;;;24.20;14.32;;;;;;;;;;5052753;28;20025;-58
2021/05/27 04:46:00;;;;;;;20.67;14.25;;;;;;;;;;5071094;28;20020;-62
2021/05/27 04:48:26;;;;;;;20.83;12.75;;;;;;;;;;5052504;28;20064;-61
2021/05/27 04:50:53;;;;;;;27.90;13.93;;;;;;;;;;5052651;28;20032;-62
2021/05/27 04:53:19;;;;;;;24.63;14.23;;;;;;;;;;5051189;28;20086;-62
2021/05/27 04:55:46;;;;;;;24.38;13.90;;;;;;;;;;5052601;28;20112;-60
2021/05/27 04:58:12;;;;;;;23.98;13.60;;;;;;;;;;5051937;28;20021;-61
2021/05/27 05:00:38;;;;;;;22.95;13.13;;;;;;;;;;5051264;28;20025;-62
2021/05/27 05:03:04;;;;;;;21.65;14.32;;;;;;;;;;5051903;28;20035;-61
2021/05/27 05:05:31;;;;;;;22.73;14.13;;;;;;;;;;5051686;28;20043;-57
2021/05/27 05:07:57;;;;;;;23.85;14.13;;;;;;;;;;5051793;28;20021;-61
2021/05/27 05:10:26;;;;;;;21.88;13.48;;;;;;;;;;5051914;28;20569;-61
2021/05/27 05:12:52;;;;;;;;;;;;;;;;;;5052386;28;20032;-62
2021/05/27 05:15:21;;;;;;;21.85;14.70;;;;;;;;;;5052099;28;19961;-62
2021/05/27 05:17:49;;;;;;;22.27;14.38;;;;;;;;;;5051881;28;20028;-60
2021/05/27 05:20:15;;;;;;;23.27;13.95;;;;;;;;;;5052588;28;20029;-61
2021/05/27 05:22:41;;;;;;;22.50;14.98;;;;;;;;;;5052103;28;20484;-61
2021/05/27 05:25:07;;;;;;;22.92;15.65;;;;;;;;;;5051237;28;20036;-61
2021/05/27 05:27:33;;;;;;;23.60;14.98;;;;;;;;;;5052467;28;20090;-62
2021/05/27 05:29:59;;;;;;;22.08;14.68;;;;;;;;;;5051588;28;20476;-62
2021/05/27 05:32:25;;;;;;;22.90;13.98;;;;;;;;;;5051754;28;20028;-62
2021/05/27 05:34:52;;;;;;;22.35;14.13;;;;;;;;;;5051403;28;20563;-61
2021/05/27 05:37:18;;;;;;;21.10;14.30;;;;;;;;;;5051601;28;20312;-61
2021/05/27 05:39:44;;;;;;;23.45;14.55;;;;;;;;;;5050842;28;20127;-63
2021/05/27 05:42:12;;;;;;;20.63;12.88;;;;;;;;;;5050705;28;20515;-63
2021/05/27 05:44:38;;;;;;;19.65;13.32;;;;;;;;;;5050987;28;20024;-62
2021/05/27 05:47:04;;;;;;;22.75;14.50;;;;;;;;;;5051643;28;20032;-63
2021/05/27 05:49:30;;;;;;;19.85;12.45;;;;;;;;;;5051011;28;20033;-62
2021/05/27 05:51:56;;;;;;;21.10;12.40;;;;;;;;;;5051616;28;20115;-63
2021/05/27 05:54:22;;;;;;;19.33;12.82;;;;;;;;;;5051183;28;20136;-61
2021/05/27 05:56:48;;;;;;;20.85;12.35;;;;;;;;;;5047476;28;20291;-63
2021/05/27 05:59:14;;;;;;;19.85;12.00;;;;;;;;;;5043763;28;20115;-63
2021/05/27 06:01:40;;;;;;;20.02;13.70;;;;;;;;;;5043754;28;20071;-62
2021/05/27 06:04:06;;;;;;;18.85;12.60;;;;;;;;;;5032189;28;20517;-61
2021/05/27 06:06:32;;;;;;;20.40;13.07;;;;;;;;;;5045144;28;20078;-60
2021/05/27 06:08:58;;;;;;;25.05;13.70;;;;;;;;;;5034837;28;20025;-63
2021/05/27 06:11:25;;;;;;;21.83;12.60;;;;;;;;;;5035389;28;20028;-60
2021/05/27 06:13:51;;;;;;;20.15;12.85;;;;;;;;;;5037157;28;20025;-60
2021/05/27 06:16:17;;;;;;;19.48;12.57;;;;;;;;;;5055515;28;20036;-60
2021/05/27 06:18:43;;;;;;;21.05;12.48;;;;;;;;;;5055344;28;20031;-62
2021/05/27 06:21:09;;;;;;;22.60;12.45;;;;;;;;;;5054455;28;20480;-59
2021/05/27 06:23:36;;;;;;;21.50;13.10;;;;;;;;;;5055505;28;20028;-62
2021/05/27 06:26:02;;;;;;;21.45;13.20;;;;;;;;;;5055436;28;20028;-61
2021/05/27 06:28:28;;;;;;;23.00;13.40;;;;;;;;;;5054068;28;20021;-61
2021/05/27 06:30:55;;;;;;;20.17;12.48;;;;;;;;;;5052765;28;20024;-61
2021/05/27 06:33:21;;;;;;;23.30;13.23;;;;;;;;;;5035102;28;20562;-63
2021/05/27 06:35:47;;;;;;;19.95;12.07;;;;;;;;;;5035144;28;20029;-63
2021/05/27 06:38:14;;;;;;;17.65;11.05;;;;;;;;;;5035428;28;20020;-59
2021/05/27 06:40:43;;;;;;;18.52;10.45;;;;;;;;;;5039913;28;20537;-61
2021/05/27 06:43:09;;;;;;;20.67;11.20;;;;;;;;;;5045011;28;20053;-63
2021/05/27 06:45:36;;;;;;;19.65;9.93;;;;;;;;;;5043531;28;20111;-59
2021/05/27 06:50:40;;;;;;;18.63;10.13;;;;;;;;;;5030116;28;20114;-65
2021/05/27 06:53:10;;;;;;;16.95;10.00;;;;;;;;;;5013066;28;20136;-65
2021/05/27 06:55:37;;;;;;;18.35;10.32;;;;;;;;;;5031977;28;20033;-65
2021/05/27 06:58:03;;;;;;;19.13;9.82;;;;;;;;;;5013643;28;20298;-65
2021/05/27 07:00:30;;;;;;;17.50;9.90;;;;;;;;;;5014289;28;20030;-65
2021/05/27 07:02:56;;;;;;;18.67;9.48;;;;;;;;;;5016089;28;20029;-65
2021/05/27 07:05:22;;;;;;;16.88;9.45;;;;;;;;;;5016479;28;20025;-65
2021/05/27 07:07:49;;;;;;;16.55;9.20;;;;;;;;;;5016151;28;20040;-64
2021/05/27 07:10:15;;;;;;;17.27;9.27;;;;;;;;;;5016221;28;20036;-64
2021/05/27 07:13:07;;;;;;;16.90;9.40;;;;;;;;;;5015701;28;20021;-65
2021/05/27 07:15:34;;;;;;;17.48;9.18;;;;;;;;;;5010919;28;20033;-65
2021/05/27 07:18:00;;;;;;;17.05;9.43;;;;;;;;;;5016165;28;20018;-65
2021/05/27 07:20:27;;;;;;;16.55;8.57;;;;;;;;;;5015319;28;20036;-64
2021/05/27 07:22:54;;;;;;;16.88;8.80;;;;;;;;;;5034196;28;20052;-64
2021/05/27 07:25:21;;;;;;;17.63;9.30;;;;;;;;;;5033496;28;20044;-63
2021/05/27 07:27:51;;;;;;;17.02;9.15;;;;;;;;;;5016228;28;20469;-63
2021/05/27 07:30:18;;;;;;;16.70;8.90;;;;;;;;;;5033414;28;20108;-64
2021/05/27 07:32:44;;;;;;;15.90;8.68;;;;;;;;;;5015828;28;20487;-62
2021/05/27 07:35:10;;;;;;;16.90;9.25;;;;;;;;;;5033293;28;20025;-63
2021/05/27 07:37:36;;;;;;;16.42;8.30;;;;;;;;;;5016043;28;20031;-62
2021/05/27 07:40:02;;;;;;;18.55;9.23;;;;;;;;;;5032964;28;20466;-62
2021/05/27 07:42:28;;;;;;;17.00;9.38;;;;;;;;;;5033207;28;20025;-64
2021/05/27 07:44:54;;;;;;;18.00;9.27;;;;;;;;;;5014600;28;20027;-63
2021/05/27 07:47:20;;;;;;;17.95;9.73;;;;;;;;;;5033012;28;20188;-61
2021/05/27 07:49:46;;;;;;;18.45;9.43;;;;;;;;;;5033315;28;20112;-63
2021/05/27 07:52:13;;;;;;;18.30;9.48;;;;;;;;;;5033055;28;20037;-68
2021/05/27 07:54:38;;;;;;;17.88;8.60;;;;;;;;;;5033469;28;20028;-67
2021/05/27 07:57:05;;;;;;;17.85;9.30;;;;;;;;;;5031764;28;20022;-67
2021/05/27 07:59:31;;;;;;;15.88;8.20;;;;;;;;;;5012879;28;20071;-70
2021/05/27 08:01:57;;;;;;;15.93;8.48;;;;;;;;;;5030698;28;20445;-65
2021/05/27 08:04:23;;;;;;;15.73;8.13;;;;;;;;;;5012108;28;20025;-67
2021/05/27 08:06:49;;;;;;;23.45;10.02;;;;;;;;;;5020833;28;20017;-66
2021/05/27 08:09:15;;;;;;;16.15;7.75;;;;;;;;;;5024347;28;20048;-66
2021/05/27 08:11:42;;;;;;;17.30;8.20;;;;;;;;;;5017039;28;20033;-66
2021/05/27 08:14:08;;;;;;;16.27;7.85;;;;;;;;;;4995484;28;20064;-66
2021/05/27 08:16:34;;;;;;;15.38;7.50;;;;;;;;;;4995362;28;20469;-66
2021/05/27 08:19:01;;;;;;;15.75;8.00;;;;;;;;;;4995128;28;20025;-65
2021/05/27 08:21:27;;;;;;;17.15;8.52;;;;;;;;;;5012565;28;20041;-64
2021/05/27 08:23:54;;;;;;;15.85;8.60;;;;;;;;;;4994834;28;20025;-66
2021/05/27 08:26:20;;;;;;;17.00;8.50;;;;;;;;;;4995045;28;20389;-62
2021/05/27 08:28:47;;;;;;;17.17;8.48;;;;;;;;;;4995430;28;20125;-62
2021/05/27 08:31:13;;;;;;;16.38;7.72;;;;;;;;;;4995254;28;20026;-63
2021/05/27 08:33:40;;;;;;;17.95;8.57;;;;;;;;;;5012630;28;20096;-64
2021/05/27 08:36:07;;;;;;;17.05;8.82;;;;;;;;;;5013295;28;20482;-64
2021/05/27 08:38:34;;;;;;;15.77;8.23;;;;;;;;;;5013015;28;20045;-64
2021/05/27 08:41:00;;;;;;;15.65;7.85;;;;;;;;;;5012545;28;20025;-61
2021/05/27 08:43:28;;;;;;;18.05;8.45;;;;;;;;;;4988918;28;20022;-65
2021/05/27 08:45:54;;;;;;;15.93;7.85;;;;;;;;;;4977953;28;20026;-61
2021/05/27 08:48:20;;;;;;;15.80;8.00;;;;;;;;;;4995579;28;20350;-60
2021/05/27 08:50:47;;;;;;;16.33;8.27;;;;;;;;;;4995797;28;20026;-62
2021/05/27 08:53:13;;;;;;;17.48;7.95;;;;;;;;;;4977426;28;20026;-60
2021/05/27 08:55:40;;;;;;;19.67;8.55;;;;;;;;;;4978670;28;20018;-61
2021/05/27 08:58:06;;;;;;;17.15;8.43;;;;;;;;;;4980298;28;20486;-63
2021/05/27 09:00:32;;;;;;;15.43;7.78;;;;;;;;;;5012800;28;20535;-62
2021/05/27 09:03:02;;;;;;;17.35;8.20;;;;;;;;;;4996128;28;20509;-61
2021/05/27 09:05:31;;;;;;;16.30;8.55;;;;;;;;;;5000751;28;20375;-59
2021/05/27 09:07:58;;;;;;;17.00;8.20;;;;;;;;;;5031927;28;20087;-60
2021/05/27 09:10:44;;;;;;;17.52;8.32;;;;;;;;;;5013876;28;20037;-60
2021/05/27 09:13:11;;;;;;;17.45;8.45;;;;;;;;;;5026523;28;20370;-61
2021/05/27 09:15:37;;;;;;;16.65;8.25;;;;;;;;;;5014369;28;20029;-63
2021/05/27 09:18:03;;;;;;;20.17;8.00;;;;;;;;;;5014144;28;20083;-62
2021/05/27 09:20:30;;;;;;;17.98;9.38;;;;;;;;;;5014500;28;20485;-61
2021/05/27 09:23:07;;;;;;;16.65;7.82;;;;;;;;;;5014050;28;20540;-60
2021/05/27 09:25:35;;;;;;;16.92;8.38;;;;;;;;;;5014231;28;20021;-60
2021/05/27 09:28:01;;;;;;;17.10;8.93;;;;;;;;;;5031854;28;20093;-62
2021/05/27 09:30:27;;;;;;;16.45;8.48;;;;;;;;;;5013994;28;20062;-58
2021/05/27 09:32:54;;;;;;;17.48;8.18;;;;;;;;;;5014598;28;20124;-63
2021/05/27 09:35:20;;;;;;;16.83;8.15;;;;;;;;;;5014179;28;20108;-62
2021/05/27 09:37:48;;;;;;;19.52;8.20;;;;;;;;;;5014212;28;20473;-62
2021/05/27 09:40:35;;;;;;;16.40;8.73;;;;;;;;;;5013416;28;20033;-63
2021/05/27 09:43:01;;;;;;;19.13;8.43;;;;;;;;;;5013729;28;20025;-61
2021/05/27 09:45:28;;;;;;;18.38;9.13;;;;;;;;;;5014338;28;20029;-59
2021/05/27 09:47:55;;;;;;;17.20;8.15;;;;;;;;;;5013938;28;20026;-59
2021/05/27 09:50:31;;;;;;;18.60;9.18;;;;;;;;;;5014020;28;20362;-59
2021/05/27 09:52:57;;;;;;;18.90;10.05;;;;;;;;;;5031907;28;20472;-64
2021/05/27 09:55:23;;;;;;;19.58;8.18;;;;;;;;;;5014052;28;20370;-60
2021/05/27 09:57:49;;;;;;;19.27;9.02;;;;;;;;;;5013790;28;20425;-62
2021/05/27 10:00:21;;;;;;;16.73;8.85;;;;;;;;;;5013606;28;20026;-61
2021/05/27 10:02:48;;;;;;;17.73;9.20;;;;;;;;;;5014146;28;20554;-57
2021/05/27 10:05:14;;;;;;;16.75;8.50;;;;;;;;;;5013996;28;20075;-62
2021/05/27 10:07:40;;;;;;;19.35;9.52;;;;;;;;;;5014160;28;20444;-62
2021/05/27 10:10:08;;;;;;;19.48;10.38;;;;;;;;;;5014232;28;20033;-62
2021/05/27 10:12:39;;;;;;;22.10;9.75;;;;;;;;;;5013218;28;20026;-62
2021/05/27 10:15:06;;;;;;;21.30;9.90;;;;;;;;;;5013092;28;20059;-59
2021/05/27 10:17:32;;;;;;;21.52;10.18;;;;;;;;;;5014162;28;20023;-62
2021/05/27 10:19:58;;;;;;;18.13;8.68;;;;;;;;;;5013539;28;20021;-62
2021/05/27 10:22:24;;;;;;;17.33;8.80;;;;;;;;;;5013374;28;20027;-61
2021/05/27 10:24:50;;;;;;;16.60;8.02;;;;;;;;;;5013709;28;20026;-60
2021/05/27 10:27:16;;;;;;;20.10;7.72;;;;;;;;;;5013711;28;20025;-59
2021/05/27 10:29:43;;;;;;;16.52;7.85;;;;;;;;;;5013211;28;20032;-63
2021/05/27 10:32:09;;;;;;;17.45;7.22;;;;;;;;;;5013104;28;20496;-60
2021/05/27 10:34:46;;;;;;;14.57;6.90;;;;;;;;;;5013602;28;20017;-60
2021/05/27 10:37:13;;;;;;;15.85;7.15;;;;;;;;;;5013197;28;20029;-61
2021/05/27 10:39:40;;;;;;;15.65;7.10;;;;;;;;;;5013284;28;20117;-59
2021/05/27 10:42:06;;;;;;;17.33;7.80;;;;;;;;;;5013334;28;20021;-59
2021/05/27 10:44:33;;;;;;;14.93;7.25;;;;;;;;;;5013396;28;20021;-59
2021/05/27 10:46:59;;;;;;;17.65;8.02;;;;;;;;;;5013001;28;20057;-61
2021/05/27 10:49:40;;;;;;;14.90;7.82;;;;;;;;;;5012627;28;20166;-59
2021/05/27 10:52:26;;;;;;;15.50;7.90;;;;;;;;;;5016460;28;20029;-61
2021/05/27 10:54:52;;;;;;;17.25;8.05;;;;;;;;;;5016928;28;20513;-62
2021/05/27 10:57:36;;;;;;;15.18;7.63;;;;;;;;;;5016873;28;20021;-61
2021/05/27 11:00:04;;;;;;;16.08;7.22;;;;;;;;;;5016434;28;20029;-60
2021/05/27 11:02:30;;;;;;;15.88;7.60;;;;;;;;;;5016417;28;20021;-62
2021/05/27 11:05:15;;;;;;;15.80;8.30;;;;;;;;;;5016894;28;20067;-60
2021/05/27 11:07:41;;;;;;;17.13;7.78;;;19.50;99.90;;;;;;5017094;28;20032;-59
2021/05/27 11:10:30;;;;;;;18.10;8.70;;;11.70;99.90;;;;;;5016255;28;20116;-57
2021/05/27 11:13:05;;;;;;;15.93;7.90;;;11.50;99.90;;;;;;5016145;28;20047;-58
2021/05/27 11:15:31;;;;;;;16.38;8.05;;;11.50;99.90;;;;;;5016235;28;20036;-56
2021/05/27 11:18:04;;;;;;;16.15;8.60;;;;;;;;;;5016551;28;20021;-57
2021/05/27 11:20:32;;;;;;;19.17;8.85;;;;;;;;;;5017332;28;20393;-60
2021/05/27 11:23:22;;;;;;;18.05;8.05;;;;;;;;;;5016950;28;20408;-61
2021/05/27 11:25:50;;;;;;;20.33;8.45;;;;;;;;;;5015980;28;20025;-59
2021/05/27 11:28:16;;;;;;;17.10;9.13;;;;;;;;;;5016119;28;20026;-61
2021/05/27 11:30:44;;;;;;;17.75;8.80;;;;;;;;;;5015754;28;20523;-60
2021/05/27 11:33:13;;;;;;;17.85;8.70;;;;;;;;;;5015672;28;20531;-61
2021/05/27 11:35:40;;;;;;;16.20;8.48;;;;;;;;;;5015911;28;20022;-59
2021/05/27 11:38:07;;;;;;;17.15;8.75;;;;;;;;;;5016060;28;20116;-60
2021/05/27 11:40:36;;;;;;;19.85;9.00;;;;;;;;;;5015758;28;20559;-62
2021/05/27 11:43:03;;;;;;;17.23;8.90;;;;;;;;;;5015575;28;20036;-58
2021/05/27 11:45:38;;;;;;;18.95;9.07;;;;;;;;;;5015534;28;20029;-60
2021/05/27 11:48:08;;;;;;;18.42;9.10;;;;;;;;;;5015697;28;20026;-57
2021/05/27 11:50:34;;;;;;;16.65;8.80;;;;;;;;;;5015146;28;20143;-60
2021/05/27 11:53:00;;;;;;;17.15;8.70;;;;;;;;;;5015081;28;20107;-59
2021/05/27 11:55:28;;;;;;;17.55;8.57;;;;;;;;;;5015549;28;20476;-61
2021/05/27 11:57:54;;;;;;;20.23;9.45;;;;;;;;;;5033111;28;20040;-61
2021/05/27 12:00:21;;;;;;;16.40;8.90;;;;;;;;;;5015388;28;20029;-59
2021/05/27 12:02:49;;;;;;;19.60;10.38;;;;;;;;;;5014496;28;20615;-60
2021/05/27 12:05:25;;;;;;;18.27;9.75;;;;;;;;;;5015210;28;20022;-60
2021/05/27 12:08:07;;;;;;;18.83;9.60;;;;;;;;;;5015109;28;20034;-59
2021/05/27 12:10:38;;;;;;;17.80;9.52;;;;;;;;;;5014778;28;20354;-60
2021/05/27 12:13:15;;;;;;;18.33;9.45;;;;;;;;;;5014833;28;20017;-59
2021/05/27 12:15:42;;;;;;;15.80;8.25;;;;;;;;;;5014495;28;20014;-61
2021/05/27 12:18:12;;;;;;;19.48;8.52;;;;;;;;;;5014464;28;20117;-62
2021/05/27 12:20:39;;;;;;;16.38;7.90;;;;;;;;;;5014462;28;20056;-61
2021/05/27 12:23:15;;;;;;;16.65;8.32;;;;;;;;;;5014473;28;20025;-60
2021/05/27 12:25:48;;;;;;;17.50;8.38;;;;;;;;;;5032835;28;20037;-61
2021/05/27 12:28:15;;;;;;;15.93;7.65;;;;;;;;;;5014826;28;20076;-58
2021/05/27 12:30:54;;;;;;;16.27;8.10;;;;;;;;;;4998659;28;20551;-59
2021/05/27 12:33:21;;;;;;;15.60;7.50;;;;;;;;;;5014810;28;20017;-57
2021/05/27 12:35:47;;;;;;;18.20;8.05;;;;;;;;;;5014762;28;20048;-58
2021/05/27 12:38:19;;;;;;;16.65;8.57;;;;;;;;;;5015029;28;20108;-60
2021/05/27 12:40:50;;;;;;;17.08;7.82;;;;;;;;;;5014614;28;20043;-62
2021/05/27 12:43:24;;;;;;;17.80;8.10;;;;;;;;;;5014584;28;20029;-60
2021/05/27 12:45:50;;;;;;;17.98;8.73;;;;;;;;;;5014518;28;20041;-62
2021/05/27 12:48:18;;;;;;;18.10;8.60;;;;;;;;;;5014132;28;20080;-62
2021/05/27 12:50:59;;;;;;;17.38;8.18;;;;;;;;;;5015540;28;20124;-61
2021/05/27 12:53:35;;;;;;;15.10;7.65;;;;;;;;;;5014069;28;20059;-62
2021/05/27 12:56:14;;;;;;;18.10;8.48;;;;;;;;;;5014366;28;20052;-59
2021/05/27 12:58:41;;;;;;;17.17;7.78;;;;;;;;;;5014240;28;20028;-59
2021/05/27 13:01:08;;;;;;;21.08;9.45;;;;;;;;;;5013677;28;20407;-62
2021/05/27 13:03:50;;;;;;;18.20;8.77;;;;;;;;;;5012524;28;20079;-62
2021/05/27 13:06:18;;;;;;;17.90;8.05;;;;;;;;;;5013197;28;20021;-63
2021/05/27 13:08:44;;;;;;;18.45;8.15;;;;;;;;;;5014095;28;20036;-64
2021/05/27 13:11:21;;;;;;;19.52;8.35;;;;;;;;;;5013876;28;20144;-61
2021/05/27 13:13:47;;;;;;;18.88;9.73;;;;;;;;;;5012757;28;20036;-63
2021/05/27 13:16:32;;;;;;;16.85;8.40;;;;;;;;;;5013998;28;20029;-59
2021/05/27 13:18:58;;;;;;;18.85;8.10;;;;;;;;;;5014077;28;20084;-61
2021/05/27 13:21:24;;;;;;;18.23;8.32;;;;;;;;;;5013293;28;20065;-62
2021/05/27 13:23:50;;;;;;;15.57;7.38;;;;;;;;;;5031611;28;20036;-62
2021/05/27 13:26:20;;;;;;;16.75;7.28;;;;;;;;;;5014362;28;20136;-63
2021/05/27 13:28:59;;;;;;;16.60;7.72;;;;;;;;;;5031483;28;20080;-62
2021/05/27 13:31:34;;;;;;;17.52;8.27;;;;;;;;;;5009769;28;20125;-60
2021/05/27 13:34:01;;;;;;;18.17;8.68;;;;;;;;;;5013772;28;20033;-63
2021/05/27 13:36:27;;;;;;;18.48;7.15;;;;;;;;;;4666739;28;9999881;-60
2021/05/27 13:38:53;;;;;;;16.63;7.93;;;;;;;;;;5010862;28;20033;-59
2021/05/27 13:41:19;;;;;;;17.13;7.35;;;;;;;;;;5007660;28;20030;-61
2021/05/27 13:43:45;;;;;;;14.75;7.38;;;;;;;;;;5000813;28;20401;-58
2021/05/27 13:46:11;;;;;;;21.05;8.43;;;;;;;;;;5000615;28;20034;-61
2021/05/27 13:48:37;;;;;;;19.27;7.55;;;;;;;;;;4999070;28;20037;-62
2021/05/27 13:51:06;;;;;;;23.45;7.38;;;;;;;;;;5000727;28;20578;-58
2021/05/27 13:53:32;;;;;;;18.10;7.88;;;;;;;;;;5000967;28;20022;-62
2021/05/27 13:56:02;;;;;;;20.35;7.75;;;;;;;;;;5002667;28;20049;-57
2021/05/27 13:58:28;;;;;;;18.67;8.02;;;;;;;;;;5003564;28;20018;-61
2021/05/27 14:00:55;;;;;;;18.27;7.53;;;;;;;;;;4993643;28;20112;-63
2021/05/27 14:03:21;;;;;;;19.13;9.63;;;;;;;;;;4993930;28;20037;-61
2021/05/27 14:05:47;;;;;;;19.48;9.15;;;;;;;;;;4993937;28;20398;-63
2021/05/27 14:08:15;;;;;;;22.38;9.55;;;;;;;;;;4996226;28;20486;-63
2021/05/27 14:10:41;;;;;;;19.00;8.85;;;;;;;;;;5002930;28;20048;-64
2021/05/27 14:13:08;;;;;;;18.38;8.98;;;;;;;;;;5003743;28;20022;-62
2021/05/27 14:15:34;;;;;;;19.02;9.93;;;;;;;;;;5012895;28;20108;-61
2021/05/27 14:18:00;;;;;;;20.55;12.20;;;;;;;;;;5012517;28;20053;-63
2021/05/27 14:20:26;;;;;;;23.00;11.23;;;;;;;;;;5012060;28;20521;-63
2021/05/27 14:23:02;;;;;;;23.21;11.19;;;;;;;;;;5001758;28;10001159;-62
2021/05/27 14:25:28;;;;;;;22.40;10.32;;;;;;;;;;5011027;28;20256;-62
2021/05/27 14:27:54;;;;;;;19.90;10.20;;;;;;;;;;5013181;28;20099;-61
2021/05/27 14:30:20;;;;;;;19.63;9.30;;;;;;;;;;5013558;28;20477;-62
2021/05/27 14:32:46;;;;;;;16.90;8.32;;;;;;;;;;5013245;28;20405;-63
2021/05/27 14:35:12;;;;;;;17.83;8.50;;;;;;;;;;5013837;28;20025;-63
2021/05/27 14:37:38;;;;;;;17.30;8.40;;;;;;;;;;5013581;28;20116;-63
2021/05/27 14:40:05;;;;;;;18.98;8.32;;;;;;;;;;5013761;28;20060;-63
2021/05/27 14:42:31;;;;;;;16.67;7.70;;;;;;;;;;5012186;28;20075;-63